Citrus Heights, CA (95610)

12:15 PM PDT on August 25, 2016 (GMT -0700)
Woodmore Oaks | | Change Station

Elev 204 ft 38.69 °N, 121.26 °W | Updated 5 minutes ago

Clear
Clear
78.3 °F
Feels Like 79 °F
N
2.0
Wind Variable Wind from SW
Gusts 3.0 mph

Today
High -- | Low -- °F
--% Chance of Precip.
Yesterday
High -- | Low -- °F
Precip. -- in
Pressure 29.91 in
Visibility 8.0 miles
Clouds Clear
Heat Index 79 °F
Dew Point 57 °F
Humidity 48%
Rainfall 0.00 in
Snow Depth Not available.
6:28 AM 7:44 PM
Last Quarter, 43% visible
METAR KMCC 251855Z AUTO 18004KT 8SM CLR 24/10 A2991 RMK AO2
Pressure 29.91 in
Visibility 8.0 miles
Clouds Clear
Heat Index 79 °F
Dew Point 57 °F
Humidity 48%
Rainfall 0.00 in
Snow Depth Not available.
6:28 AM 7:44 PM
Last Quarter, 43% visible
METAR KMCC 251855Z AUTO 18004KT 8SM CLR 24/10 A2991 RMK AO2
A tropical disturbance pushing toward the Bahamas, is expected to develop into a tropical depression or storm, and will likely target Florida and the Gulf Coast this weekend into next week.

Right now, the disturbance remains a broad area of low pressure pushing through the Dominican Republic and Haiti, headed toward the southeast Bahamas. Rainfall totals over 3 inches (with locally higher amounts) are expected in HispaƱiola, particularly over elevated terrain.

10-Day Weather Forecast

Almanac

Astronomy

Aug. 25, 2016 Rise Set
Actual Time
Civil Twilight
Nautical Twilight
Astronomical Twilight
Moon
Length of Visible Light
Length of Day
Tomorrow will be .
, % of the Moon is Illuminated

Today's Extremes

State Highs State Lows

Community

WunderPhotos

Upload Photos

1,934,907 photos uploaded!

WunderBlog® & News

Nearby

Air Quality

  Air Quality AQ Index Pollutant
Not available.

Snow Depth

Station Depth Elevation

Earthquake Activity

City Distance Mag. Time & Date
Minimum magnitude displayed is 2.5.

Coastal Water Temperatures

Place Temperature

Stations

Nearby Weather Stations

Station Location Temp. Windchill Dew Point Humidity Wind Precip. Elev Updated Type
                   

Watches & Warnings

There are currently no watches in effect.